LIMZ/CUF METAR and TAF weather

Enter ICAO airport designator
Station Type Date Time Source
LIMZ METAR 2022/06/29 00:20 UTC NOAA

LIMZ 290020Z AUTO 22005KT 9999 OVC100/// 17/14 Q1014


Station Type Date Time Source
LIMZ Decoded METAR 2022/06/29 00:20 UTC NOAA

Cuneo / Levaldigi, Italy (LIMZ) 44-32-47N 007-37-20E
Jun 28, 2022 - 08:20 PM EDT / 2022.06.29 0020 UTC
Wind: from the SW (220 degrees) at 6 MPH (5 KT):0
Visibility: greater than 7 mile(s):0
Sky conditions: overcast
Temperature: 62 F (17 C)
Dew Point: 57 F (14 C)
Relative Humidity: 82%
Pressure (altimeter): 29.94 in. Hg (1014 hPa)
ob: LIMZ 290020Z AUTO 22005KT 9999 OVC100/// 17/14 Q1014
cycle: 0

Station Type Date Time Source
LIMZ TAF 2022/06/28 18:24 UTC NOAA

TAF LIMZ 281700Z 2818/2918 31010KT 9999 BKN050
TEMPO 2818/2820 3000 TSRA PROB40 2820/2822 VRB05KT

Example: see airport list